createdAt,value
2023-05-23T00:03:43.594Z,9.90
2023-05-23T00:07:46.432Z,10.70
2023-05-23T00:11:49.212Z,22.70
2023-05-23T00:16:17.373Z,11.20
2023-05-23T00:20:21.285Z,11.80
2023-05-23T00:24:24.519Z,10.50
2023-05-23T00:28:28.066Z,11.00
2023-05-23T00:32:30.874Z,10.60
2023-05-23T00:36:59.847Z,11.80
2023-05-23T00:41:02.595Z,9.90
2023-05-23T00:45:06.152Z,11.60
2023-05-23T00:49:09.502Z,11.70
2023-05-23T00:53:14.665Z,10.30
2023-05-23T00:57:17.630Z,10.00
2023-05-23T01:01:21.257Z,11.30
2023-05-23T01:05:25.124Z,10.40
2023-05-23T01:09:29.205Z,11.40
2023-05-23T01:13:43.210Z,11.60
2023-05-23T01:18:10.213Z,9.30
2023-05-23T01:22:23.582Z,14.30
2023-05-23T01:27:06.015Z,12.30
2023-05-23T01:31:11.174Z,8.40
2023-05-23T01:35:20.212Z,9.70
2023-05-23T01:39:23.688Z,15.20
2023-05-23T01:43:26.880Z,13.90
2023-05-23T01:47:29.981Z,10.40
2023-05-23T01:51:38.788Z,12.50
2023-05-23T01:55:42.872Z,10.40
2023-05-23T01:59:45.954Z,15.50
2023-05-23T02:03:51.336Z,13.20
2023-05-23T02:07:54.082Z,10.50
2023-05-23T02:11:56.808Z,13.00
2023-05-23T02:15:59.605Z,14.80
2023-05-23T02:20:02.539Z,9.00
2023-05-23T02:24:05.535Z,16.20
2023-05-23T02:28:08.296Z,12.00
2023-05-23T02:32:11.172Z,14.30
2023-05-23T02:36:14.317Z,12.90
2023-05-23T02:40:17.296Z,10.00
2023-05-23T02:44:20.204Z,15.50
2023-05-23T02:48:23.052Z,11.60
2023-05-23T02:52:26.244Z,13.70
2023-05-23T02:56:29.255Z,12.50
2023-05-23T03:00:32.590Z,13.50
2023-05-23T03:04:35.466Z,9.60
2023-05-23T03:14:25.491Z,18.50
2023-05-23T03:18:28.327Z,14.40
2023-05-23T03:22:31.228Z,10.10
2023-05-23T03:26:34.166Z,12.50
2023-05-23T03:30:37.296Z,10.80
2023-05-23T03:34:40.556Z,14.20
2023-05-23T03:38:43.435Z,16.30
2023-05-23T03:43:06.320Z,12.30
2023-05-23T03:52:59.078Z,13.10
2023-05-23T03:57:03.580Z,12.80
2023-05-23T04:01:07.776Z,13.20
2023-05-23T04:05:12.150Z,12.10
2023-05-23T04:09:16.552Z,12.80
2023-05-23T04:13:21.416Z,11.20
2023-05-23T04:17:26.026Z,12.60
2023-05-23T04:21:29.571Z,13.00
2023-05-23T04:25:32.894Z,15.60
2023-05-23T04:29:36.465Z,17.40
2023-05-23T04:33:39.694Z,17.20
2023-05-23T04:37:42.882Z,16.80
2023-05-23T04:41:46.458Z,12.20
2023-05-23T04:45:54.462Z,13.50
2023-05-23T04:59:11.907Z,32.40
2023-05-23T05:03:19.888Z,12.80
2023-05-23T05:07:23.724Z,12.90
2023-05-23T05:11:29.806Z,31.30
2023-05-23T05:19:42.262Z,21.50
2023-05-23T05:23:45.339Z,20.10
2023-05-23T05:27:48.397Z,15.10
2023-05-23T05:31:53.510Z,17.60
2023-05-23T05:35:56.617Z,16.50
2023-05-23T05:40:06.282Z,13.70
2023-05-23T05:44:10.575Z,15.60
2023-05-23T05:48:13.817Z,23.20
2023-05-23T05:52:17.071Z,22.20
2023-05-23T05:56:20.903Z,15.00
2023-05-23T06:00:24.215Z,18.30
2023-05-23T06:04:27.595Z,16.00
2023-05-23T06:08:30.771Z,12.90
2023-05-23T06:12:34.672Z,16.30
2023-05-23T06:16:38.021Z,46.20
2023-05-23T06:20:41.483Z,17.40
2023-05-23T06:24:44.837Z,28.00
2023-05-23T06:28:48.063Z,13.10
2023-05-23T06:32:51.475Z,10.20
2023-05-23T06:36:55.216Z,16.40
2023-05-23T06:40:58.299Z,17.40
2023-05-23T06:45:01.458Z,15.00
2023-05-23T06:49:14.255Z,16.30
2023-05-23T06:53:19.323Z,13.20
2023-05-23T06:57:22.709Z,15.90
2023-05-23T07:01:26.915Z,20.40
2023-05-23T07:05:30.226Z,16.20
2023-05-23T07:09:33.718Z,17.10
2023-05-23T07:13:39.094Z,15.40
2023-05-23T07:17:42.339Z,17.80
2023-05-23T07:21:45.574Z,12.80
2023-05-23T07:26:01.204Z,13.30
2023-05-23T07:30:07.997Z,11.80
2023-05-23T07:34:11.232Z,16.10
2023-05-23T07:38:14.460Z,18.20
2023-05-23T07:42:17.804Z,18.00
2023-05-23T07:46:23.168Z,16.10
2023-05-23T07:50:27.930Z,12.60
2023-05-23T07:54:31.362Z,12.70
2023-05-23T07:58:34.571Z,13.50
2023-05-23T08:02:37.862Z,13.80
2023-05-23T08:06:45.799Z,27.10
2023-05-23T08:10:59.382Z,15.00
2023-05-23T08:15:02.512Z,13.10
2023-05-23T08:19:05.943Z,16.20
2023-05-23T08:23:09.214Z,14.60
2023-05-23T08:27:12.410Z,18.00
2023-05-23T08:31:16.196Z,12.70
2023-05-23T08:35:20.067Z,20.40
2023-05-23T08:39:23.408Z,11.80
2023-05-23T08:43:27.063Z,15.10
2023-05-23T08:47:35.259Z,13.30
2023-05-23T08:51:42.836Z,14.10
2023-05-23T08:55:47.784Z,16.40
2023-05-23T08:59:52.547Z,13.10
2023-05-23T09:03:56.396Z,16.30
2023-05-23T09:07:59.883Z,13.00
2023-05-23T09:12:03.607Z,20.30
2023-05-23T09:16:10.495Z,15.40
2023-05-23T09:20:15.889Z,10.70
2023-05-23T09:24:19.750Z,8.90
2023-05-23T09:28:23.912Z,8.70
2023-05-23T09:32:28.157Z,10.80
2023-05-23T09:36:33.837Z,10.40
2023-05-23T09:40:37.083Z,10.90
2023-05-23T09:44:44.006Z,7.00
2023-05-23T09:48:48.610Z,7.40
2023-05-23T09:52:54.073Z,10.30
2023-05-23T09:57:01.647Z,8.40
2023-05-23T10:01:10.261Z,8.00
2023-05-23T10:05:36.514Z,9.50
2023-05-23T10:09:40.229Z,7.10
2023-05-23T10:13:49.451Z,14.20
2023-05-23T10:18:15.977Z,8.10
2023-05-23T10:22:21.214Z,8.40
2023-05-23T10:26:24.502Z,10.80
2023-05-23T10:30:28.534Z,9.20
2023-05-23T10:34:56.048Z,6.50
2023-05-23T10:39:06.275Z,6.60
2023-05-23T10:43:35.042Z,8.40
2023-05-23T10:47:39.872Z,12.40
2023-05-23T10:51:43.233Z,8.60
2023-05-23T10:55:49.437Z,12.00
2023-05-23T10:59:53.888Z,5.80
2023-05-23T11:03:57.476Z,6.70
2023-05-23T11:08:14.730Z,15.80
2023-05-23T11:12:37.935Z,10.10
2023-05-23T11:16:42.804Z,5.90
2023-05-23T11:20:47.702Z,8.00
2023-05-23T11:24:55.333Z,8.00
2023-05-23T11:28:59.672Z,6.90
2023-05-23T11:33:12.333Z,6.00
2023-05-23T11:37:15.788Z,6.90
2023-05-23T11:41:19.728Z,5.90
2023-05-23T11:45:24.005Z,4.70
2023-05-23T11:49:29.409Z,5.70
2023-05-23T11:57:39.926Z,5.40
2023-05-23T12:01:43.897Z,14.00
2023-05-23T12:05:47.164Z,7.10
2023-05-23T12:09:50.505Z,8.60
2023-05-23T12:13:54.040Z,6.50
2023-05-23T12:17:58.255Z,9.50
2023-05-23T12:22:07.736Z,6.40
2023-05-23T12:26:11.114Z,7.30
2023-05-23T12:30:16.497Z,12.70
2023-05-23T12:34:21.816Z,8.30
2023-05-23T12:38:28.860Z,6.20
2023-05-23T12:42:46.952Z,7.10
2023-05-23T12:46:50.485Z,7.20
2023-05-23T12:50:53.762Z,7.10
2023-05-23T12:54:57.114Z,7.80
2023-05-23T12:59:02.189Z,8.50
2023-05-23T13:03:07.061Z,6.80
2023-05-23T13:07:10.568Z,8.00
2023-05-23T13:11:13.958Z,10.80
2023-05-23T13:15:17.680Z,9.60
2023-05-23T13:19:21.229Z,6.60
2023-05-23T13:23:26.531Z,6.80
2023-05-23T13:27:29.991Z,10.20
2023-05-23T13:36:15.257Z,10.20
2023-05-23T13:40:22.020Z,8.90
2023-05-23T13:44:25.639Z,7.90
2023-05-23T13:48:30.869Z,9.20
2023-05-23T13:57:19.917Z,9.30
2023-05-23T14:02:08.459Z,9.80
2023-05-23T14:07:02.083Z,8.50
2023-05-23T14:11:16.533Z,10.20
2023-05-23T14:15:20.117Z,13.20
2023-05-23T14:19:23.809Z,13.00
2023-05-23T14:23:27.565Z,8.20
2023-05-23T14:27:32.896Z,9.20
2023-05-23T14:31:36.933Z,10.10
2023-05-23T14:35:40.736Z,8.60
2023-05-23T14:39:44.631Z,9.40
2023-05-23T14:43:49.796Z,11.70
2023-05-23T14:51:59.683Z,10.80
2023-05-23T14:56:03.526Z,11.50
2023-05-23T15:00:10.637Z,15.30
2023-05-23T15:04:14.890Z,13.70
2023-05-23T15:08:19.280Z,12.30
2023-05-23T15:12:23.179Z,11.00
2023-05-23T15:16:33.551Z,10.60
2023-05-23T15:20:38.170Z,9.60
2023-05-23T15:24:41.850Z,16.30
2023-05-23T15:28:48.460Z,13.70
2023-05-23T15:32:53.664Z,12.80
2023-05-23T15:36:59.536Z,10.10
2023-05-23T15:41:03.370Z,11.50
2023-05-23T15:45:07.234Z,19.40
2023-05-23T15:49:21.700Z,10.80
2023-05-23T15:53:28.364Z,10.10
2023-05-23T15:57:33.465Z,12.90
2023-05-23T16:01:36.857Z,14.20
2023-05-23T16:05:39.950Z,9.00
2023-05-23T16:09:43.164Z,9.00
2023-05-23T16:13:46.308Z,11.30
2023-05-23T16:17:49.442Z,9.80
2023-05-23T16:21:53.139Z,14.50
2023-05-23T16:25:56.459Z,12.80
2023-05-23T16:29:59.956Z,10.00
2023-05-23T16:34:03.484Z,11.50
2023-05-23T16:38:06.786Z,14.40
2023-05-23T16:42:10.143Z,10.40
2023-05-23T16:46:13.659Z,10.00
2023-05-23T16:50:17.623Z,12.90
2023-05-23T16:54:21.458Z,12.10
2023-05-23T16:58:24.682Z,12.70
2023-05-23T17:02:28.097Z,14.20
2023-05-23T17:06:32.386Z,11.20
2023-05-23T17:10:36.581Z,17.50
2023-05-23T17:14:39.770Z,12.90
2023-05-23T17:18:43.185Z,12.20
2023-05-23T17:22:46.635Z,12.20
2023-05-23T17:26:49.984Z,12.30
2023-05-23T17:30:53.453Z,11.60
2023-05-23T17:34:56.688Z,9.40
2023-05-23T17:39:00.057Z,14.60
2023-05-23T17:43:03.452Z,11.80
2023-05-23T17:47:06.933Z,12.10
2023-05-23T17:51:10.442Z,8.60
2023-05-23T17:55:13.798Z,12.30
2023-05-23T17:59:52.486Z,11.80
2023-05-23T18:52:23.304Z,22.20
2023-05-23T18:57:17.647Z,23.20
2023-05-23T19:01:20.626Z,21.30
2023-05-23T19:05:24.420Z,19.80
2023-05-23T19:09:27.332Z,29.50
2023-05-23T19:13:47.806Z,21.80
2023-05-23T19:17:50.597Z,19.50
2023-05-23T19:21:59.026Z,21.70
2023-05-23T19:26:02.772Z,32.00
2023-05-23T19:30:07.079Z,23.60
2023-05-23T19:34:09.896Z,21.90
2023-05-23T19:38:13.155Z,20.80
2023-05-23T19:43:08.203Z,23.20
2023-05-23T19:47:11.700Z,32.80
2023-05-23T19:51:14.630Z,31.50
2023-05-23T19:55:18.972Z,26.80
2023-05-23T19:59:21.793Z,22.10
2023-05-23T20:03:51.567Z,21.60
2023-05-23T20:07:54.378Z,29.90
2023-05-23T20:11:57.269Z,29.80
2023-05-23T20:16:00.342Z,26.50
2023-05-23T20:20:09.034Z,22.90
2023-05-23T20:24:12.614Z,24.80
2023-05-23T20:28:15.645Z,20.40
2023-05-23T20:32:18.600Z,14.20
2023-05-23T20:36:21.491Z,13.60
2023-05-23T20:40:25.698Z,12.50
2023-05-23T20:44:31.780Z,12.00
2023-05-23T20:48:35.167Z,13.20
2023-05-23T20:52:41.422Z,9.60
2023-05-23T20:57:14.855Z,10.30
2023-05-23T21:01:17.683Z,11.70
2023-05-23T21:05:21.873Z,11.50
2023-05-23T21:09:24.660Z,9.80
2023-05-23T21:13:27.780Z,9.70
2023-05-23T21:17:30.759Z,10.20
2023-05-23T21:21:33.606Z,11.10
2023-05-23T21:25:36.446Z,11.70
2023-05-23T21:29:39.247Z,12.00
2023-05-23T21:33:42.118Z,12.80
2023-05-23T21:37:44.913Z,17.10
2023-05-23T21:41:47.765Z,13.80
2023-05-23T21:46:19.480Z,13.20
2023-05-23T21:50:22.317Z,15.90
2023-05-23T21:54:25.444Z,12.80
2023-05-23T21:58:29.285Z,14.50
2023-05-23T22:02:33.138Z,15.90
2023-05-23T22:06:36.595Z,12.90
2023-05-23T22:10:40.892Z,13.40
2023-05-23T22:14:43.873Z,8.70
2023-05-23T22:22:52.586Z,15.00
2023-05-23T22:26:56.023Z,16.90
2023-05-23T22:30:58.822Z,11.20
2023-05-23T22:35:01.817Z,12.90
2023-05-23T22:39:05.612Z,14.80
2023-05-23T22:43:08.647Z,13.90
2023-05-23T22:47:13.772Z,14.40
2023-05-23T22:51:19.842Z,14.40
2023-05-23T22:55:49.038Z,13.20
2023-05-23T22:59:51.877Z,9.30
2023-05-23T23:03:54.650Z,7.00
2023-05-23T23:07:57.506Z,3.70
2023-05-23T23:12:01.194Z,4.60
2023-05-23T23:16:06.576Z,4.20
2023-05-23T23:20:10.309Z,3.10
2023-05-23T23:24:13.671Z,6.90
2023-05-23T23:28:17.546Z,2.20
2023-05-23T23:32:20.365Z,2.10
2023-05-23T23:36:24.292Z,2.60
2023-05-23T23:40:27.211Z,1.40
2023-05-23T23:44:30.293Z,1.40
2023-05-23T23:48:39.062Z,0.80
2023-05-23T23:52:45.877Z,2.70
2023-05-23T23:56:48.699Z,1.80
